Time;durP1;ratioP1;P1;durP2;ratioP2;P2;SDS_P1;SDS_P2;PMS_P1;PMS_P2;Temp;Humidity;BMP_temperature;BMP_pressure;BME280_temperature;BME280_humidity;BME280_pressure;Samples;Min_cycle;Max_cycle;Signal;HPM_P1;HPM_P2
2022/07/05 00:02:11;;;;;;;8.25;2.47;;;14.90;99.90;;;;;;5015339;28;20165;-84
2022/07/05 00:04:57;;;;;;;7.05;2.60;;;14.90;99.90;;;;;;5012507;28;20046;-85
2022/07/05 00:07:43;;;;;;;6.55;2.22;;;14.90;99.90;;;;;;5012532;28;20085;-85
2022/07/05 00:10:30;;;;;;;5.00;2.20;;;14.90;99.90;;;;;;5012913;28;20482;-84
2022/07/05 00:13:16;;;;;;;4.18;1.73;;;14.80;99.90;;;;;;5000528;28;20060;-85
2022/07/05 00:16:02;;;;;;;3.47;1.98;;;14.80;99.90;;;;;;4995408;28;20056;-85
2022/07/05 00:18:49;;;;;;;5.85;2.30;;;14.70;99.90;;;;;;5014175;28;20060;-87
2022/07/05 00:21:35;;;;;;;6.15;2.42;;;14.70;99.90;;;;;;5013232;28;20054;-85
2022/07/05 00:24:21;;;;;;;6.90;2.13;;;14.70;99.90;;;;;;5014806;28;20509;-85
2022/07/05 00:27:07;;;;;;;7.00;3.05;;;14.70;99.90;;;;;;5013142;28;20053;-85
2022/07/05 00:29:53;;;;;;;4.13;2.28;;;14.70;99.90;;;;;;5016447;28;20372;-85
2022/07/05 00:32:40;;;;;;;4.95;2.15;;;14.70;99.90;;;;;;4998396;28;20054;-84
2022/07/05 00:35:26;;;;;;;4.93;2.70;;;14.60;99.90;;;;;;5000481;28;20057;-86
2022/07/05 00:38:12;;;;;;;5.07;2.38;;;14.60;99.90;;;;;;4995500;28;20412;-84
2022/07/05 00:40:58;;;;;;;4.85;2.40;;;14.60;99.90;;;;;;4998827;28;20141;-85
2022/07/05 00:43:56;;;;;;;8.48;2.15;;;14.60;99.90;;;;;;5017367;28;20053;-87
2022/07/05 00:46:43;;;;;;;6.25;2.33;;;14.50;99.90;;;;;;5016695;28;20052;-86
2022/07/05 00:49:31;;;;;;;3.80;2.00;;;14.50;99.90;;;;;;5010657;28;20042;-85
2022/07/05 00:52:17;;;;;;;7.50;2.75;;;14.50;99.90;;;;;;4978822;28;20057;-85
2022/07/05 00:55:04;;;;;;;4.68;2.20;;;14.50;99.90;;;;;;4992359;28;20120;-84
2022/07/05 00:57:50;;;;;;;9.63;2.92;;;14.50;99.90;;;;;;4994897;28;20058;-85
2022/07/05 01:00:37;;;;;;;5.95;2.72;;;14.50;99.90;;;;;;4992743;28;20050;-84
2022/07/05 01:03:24;;;;;;;5.50;2.40;;;14.50;99.90;;;;;;4994427;28;20057;-87
2022/07/05 01:06:12;;;;;;;7.57;2.72;;;14.40;99.90;;;;;;4979027;28;20057;-85
2022/07/05 01:08:59;;;;;;;5.93;2.97;;;14.40;99.90;;;;;;4965353;28;20133;-85
2022/07/05 01:11:47;;;;;;;4.57;2.30;;;14.40;99.90;;;;;;5002587;28;20058;-86
2022/07/05 01:14:33;;;;;;;7.90;2.95;;;14.30;99.90;;;;;;4999142;28;20525;-85
2022/07/05 01:17:19;;;;;;;6.38;2.58;;;14.30;99.90;;;;;;4976521;28;20135;-88
2022/07/05 01:20:07;;;;;;;5.88;2.50;;;14.30;99.90;;;;;;4975107;28;20576;-86
2022/07/05 01:22:54;;;;;;;6.28;2.80;;;14.20;99.90;;;;;;4991249;28;20384;-87
2022/07/05 01:25:41;;;;;;;6.65;2.92;;;14.20;99.90;;;;;;4979029;28;20058;-88
2022/07/05 01:28:27;;;;;;;4.57;2.50;;;14.20;99.90;;;;;;4995202;28;20051;-88
2022/07/05 01:31:14;;;;;;;5.63;2.60;;;14.20;99.90;;;;;;4978193;28;20046;-87
2022/07/05 01:34:00;;;;;;;6.63;2.90;;;14.20;99.90;;;;;;4990516;28;20054;-86
2022/07/05 01:36:46;;;;;;;5.75;3.30;;;14.20;99.90;;;;;;4992549;28;20046;-87
2022/07/05 01:39:33;;;;;;;7.95;2.83;;;14.10;99.90;;;;;;4994578;28;20050;-85
2022/07/05 01:42:19;;;;;;;8.50;3.17;;;14.10;99.90;;;;;;4994713;28;20172;-86
2022/07/05 01:45:06;;;;;;;8.50;3.25;;;14.00;99.90;;;;;;4973887;28;20065;-85
2022/07/05 01:47:52;;;;;;;5.78;2.83;;;14.00;99.90;;;;;;4992246;28;20046;-84
2022/07/05 01:51:03;;;;;;;6.20;2.97;;;14.00;99.90;;;;;;4987704;28;20052;-86
2022/07/05 01:53:53;;;;;;;6.50;3.10;;;14.00;99.90;;;;;;5011736;28;20124;-85
2022/07/05 01:56:39;;;;;;;8.57;2.88;;;13.90;99.90;;;;;;4996890;28;20089;-85
2022/07/05 01:59:28;;;;;;;6.97;3.10;;;13.90;99.90;;;;;;5009747;28;20060;-87
2022/07/05 02:02:14;;;;;;;7.38;3.50;;;13.80;99.90;;;;;;5011451;28;20700;-86
2022/07/05 02:05:00;;;;;;;6.70;3.00;;;13.80;99.90;;;;;;4995360;28;20148;-87
2022/07/05 02:07:50;;;;;;;6.28;3.15;;;13.80;99.90;;;;;;4992462;28;20101;-86
2022/07/05 02:10:37;;;;;;;7.95;3.53;;;13.80;99.90;;;;;;4999091;28;20054;-86
2022/07/05 02:13:23;;;;;;;8.63;3.08;;;13.80;99.90;;;;;;4998302;28;20132;-85
2022/07/05 02:16:09;;;;;;;6.40;2.90;;;13.80;99.90;;;;;;4999919;28;20050;-86
2022/07/05 02:18:56;;;;;;;5.97;2.75;;;13.80;99.90;;;;;;4995311;28;20049;-87
2022/07/05 02:21:42;;;;;;;6.38;2.95;;;13.80;99.90;;;;;;4995283;28;20140;-85
2022/07/05 02:24:29;;;;;;;7.10;3.42;;;13.80;99.90;;;;;;5012864;28;20132;-87
2022/07/05 02:27:15;;;;;;;6.40;3.22;;;13.80;99.90;;;;;;5014042;28;20050;-85
2022/07/05 02:30:02;;;;;;;11.77;2.97;;;13.80;99.90;;;;;;4996388;28;20053;-87
2022/07/05 02:32:48;;;;;;;9.77;3.08;;;13.70;99.90;;;;;;5011951;28;20088;-86
2022/07/05 02:35:34;;;;;;;6.25;2.95;;;13.80;99.90;;;;;;4995713;28;20561;-86
2022/07/05 02:38:20;;;;;;;5.57;3.00;;;13.80;99.90;;;;;;5014239;28;20077;-88
2022/07/05 02:41:07;;;;;;;6.35;2.97;;;13.80;99.90;;;;;;5014833;28;20175;-87
2022/07/05 02:43:53;;;;;;;5.53;2.42;;;13.80;99.90;;;;;;4992560;28;20509;-86
2022/07/05 02:46:39;;;;;;;8.82;3.17;;;13.80;99.90;;;;;;5010087;28;20188;-86
2022/07/05 02:49:26;;;;;;;5.20;2.80;;;13.80;99.90;;;;;;4993246;28;20513;-87
2022/07/05 02:52:12;;;;;;;10.38;2.83;;;13.80;99.90;;;;;;5011758;28;20050;-85
2022/07/05 02:54:58;;;;;;;7.15;2.85;;;13.80;99.90;;;;;;5019613;28;20080;-86
2022/07/05 02:57:44;;;;;;;7.03;2.83;;;13.80;99.90;;;;;;5002500;28;20104;-88
2022/07/05 03:00:30;;;;;;;4.97;2.60;;;13.80;99.90;;;;;;5014409;28;20091;-86
2022/07/05 03:03:16;;;;;;;6.70;2.50;;;13.80;99.90;;;;;;5015950;28;20046;-87
2022/07/05 03:06:03;;;;;;;5.55;2.70;;;13.80;99.90;;;;;;4998065;28;20465;-86
2022/07/05 03:09:16;;;;;;;4.55;2.33;;;13.90;99.90;;;;;;5018505;28;20046;-87
2022/07/05 03:12:02;;;;;;;8.63;2.95;;;13.90;99.90;;;;;;5014738;28;20413;-86
2022/07/05 03:14:48;;;;;;;4.90;2.47;;;13.90;99.90;;;;;;4997735;28;20054;-85
2022/07/05 03:17:35;;;;;;;7.10;2.80;;;13.90;99.90;;;;;;5015806;28;20092;-87
2022/07/05 03:20:21;;;;;;;6.68;2.55;;;13.90;99.90;;;;;;4999427;28;20537;-88
2022/07/05 03:23:07;;;;;;;10.82;2.90;;;14.00;99.90;;;;;;4999232;28;20054;-86
2022/07/05 03:25:53;;;;;;;4.75;2.35;;;14.00;99.90;;;;;;5003410;28;20054;-87
2022/07/05 03:28:39;;;;;;;6.22;2.20;;;14.10;99.90;;;;;;5015209;28;20056;-87
2022/07/05 03:31:25;;;;;;;5.85;2.58;;;14.10;99.90;;;;;;4995200;28;20705;-86
2022/07/05 03:34:11;;;;;;;7.57;1.90;;;14.20;99.90;;;;;;4994967;28;20042;-86
2022/07/05 03:36:58;;;;;;;7.18;1.83;;;14.30;99.90;;;;;;5015350;28;20085;-86
2022/07/05 03:39:45;;;;;;;10.60;1.83;;;14.30;99.90;;;;;;4998088;28;20145;-86
2022/07/05 03:42:32;;;;;;;3.75;1.70;;;14.30;99.90;;;;;;4996401;28;20050;-86
2022/07/05 03:45:18;;;;;;;3.42;1.80;;;14.40;99.90;;;;;;4999375;28;20046;-86
2022/07/05 03:48:04;;;;;;;7.68;2.10;;;14.30;99.90;;;;;;4998877;28;20049;-87
2022/07/05 03:50:51;;;;;;;6.70;2.00;;;14.30;99.90;;;;;;5013045;28;20082;-87
2022/07/05 03:53:37;;;;;;;8.18;2.92;;;14.30;99.90;;;;;;4986950;28;20085;-86
2022/07/05 03:56:24;;;;;;;5.28;1.73;;;14.20;99.90;;;;;;4996622;28;20249;-87
2022/07/05 03:59:10;;;;;;;7.70;2.20;;;14.20;99.90;;;;;;5014468;28;20052;-87
2022/07/05 04:01:56;;;;;;;8.77;2.05;;;14.10;99.90;;;;;;5013172;28;20049;-85
2022/07/05 04:04:43;;;;;;;6.95;2.05;;;14.10;99.90;;;;;;5013372;28;20050;-86
2022/07/05 04:07:33;;;;;;;8.52;2.65;;;14.10;99.90;;;;;;5013658;28;20046;-87
2022/07/05 04:10:19;;;;;;;8.32;2.40;;;14.10;99.90;;;;;;5004704;28;20383;-86
2022/07/05 04:13:05;;;;;;;5.88;2.63;;;14.10;99.90;;;;;;4997794;28;20059;-86
2022/07/05 04:15:53;;;;;;;7.25;2.83;;;14.00;99.90;;;;;;4996001;28;20103;-86
2022/07/05 04:18:39;;;;;;;7.55;2.58;;;14.00;99.90;;;;;;4999725;28;20075;-86
2022/07/05 04:21:25;;;;;;;8.02;2.58;;;14.00;99.90;;;;;;5015545;28;20577;-86
2022/07/05 04:24:11;;;;;;;5.47;2.17;;;14.00;99.90;;;;;;5022493;28;20119;-87
2022/07/05 04:26:57;;;;;;;7.40;2.83;;;14.00;99.90;;;;;;5020470;28;20053;-86
2022/07/05 04:29:43;;;;;;;7.03;2.60;;;14.00;99.90;;;;;;5013541;28;20073;-87
2022/07/05 04:32:30;;;;;;;5.90;2.38;;;14.00;99.90;;;;;;5000626;28;20133;-88
2022/07/05 04:35:16;;;;;;;6.53;2.42;;;14.10;99.90;;;;;;4996395;28;20103;-85
2022/07/05 04:38:03;;;;;;;4.78;2.30;;;14.10;99.90;;;;;;5012785;28;20046;-86
2022/07/05 04:40:49;;;;;;;5.63;2.15;;;14.20;99.90;;;;;;5017676;28;20053;-87
2022/07/05 04:43:35;;;;;;;4.18;2.03;;;14.20;99.90;;;;;;4994808;28;20061;-87
2022/07/05 04:46:21;;;;;;;5.47;2.28;;;14.30;99.90;;;;;;5012775;28;20132;-86
2022/07/05 04:49:07;;;;;;;6.15;2.50;;;14.30;99.90;;;;;;5013473;28;20064;-88
2022/07/05 04:51:53;;;;;;;5.28;2.35;;;14.40;99.90;;;;;;4979883;28;20050;-84
2022/07/05 04:54:40;;;;;;;9.25;2.25;;;14.40;99.90;;;;;;4979119;28;20081;-84
2022/07/05 04:57:26;;;;;;;6.32;2.20;;;14.50;99.90;;;;;;4971462;28;20046;-81
2022/07/05 05:00:14;;;;;;;4.38;2.30;;;14.60;99.90;;;;;;4992893;28;20367;-84
2022/07/05 05:03:00;;;;;;;7.35;2.78;;;14.70;99.90;;;;;;4976297;28;20056;-84
2022/07/05 05:05:46;;;;;;;6.20;2.30;;;14.80;99.90;;;;;;4992201;28;20054;-85
2022/07/05 05:08:32;;;;;;;6.28;2.08;;;14.90;99.90;;;;;;4978032;28;20050;-87
2022/07/05 05:11:18;;;;;;;7.53;1.83;;;15.00;99.90;;;;;;4978336;28;20482;-85
2022/07/05 05:14:04;;;;;;;9.15;2.28;;;15.20;99.90;;;;;;4993168;28;20093;-90
2022/07/05 05:16:50;;;;;;;5.15;1.73;;;15.40;99.90;;;;;;4992343;28;20042;-85
2022/07/05 05:19:37;;;;;;;10.13;2.58;;;15.50;99.90;;;;;;4993709;28;20046;-92
2022/07/05 05:22:23;;;;;;;4.50;1.60;;;15.50;99.90;;;;;;4993223;28;20487;-83
2022/07/05 05:25:10;;;;;;;5.80;1.70;;;15.50;99.90;;;;;;4975299;28;20054;-85
2022/07/05 05:27:57;;;;;;;5.43;2.00;;;15.50;99.90;;;;;;4993383;28;20073;-87
2022/07/05 05:30:43;;;;;;;8.23;1.75;;;15.40;99.90;;;;;;4991561;28;20050;-84
2022/07/05 05:33:29;;;;;;;3.70;1.35;;;15.40;99.90;;;;;;4982819;28;20082;-84
2022/07/05 05:36:15;;;;;;;4.97;2.05;;;15.50;99.90;;;;;;4985155;28;20089;-89
2022/07/05 05:39:02;;;;;;;7.25;2.10;;;15.40;99.90;;;;;;4973133;28;20064;-95
2022/07/05 05:41:49;;;;;;;6.70;1.70;;;15.40;99.90;;;;;;4996243;28;20146;-95
2022/07/05 05:44:35;;;;;;;5.43;1.85;;;15.50;99.90;;;;;;4996996;28;20065;-89
2022/07/05 05:47:21;;;;;;;10.50;2.05;;;15.50;99.90;;;;;;4984512;28;20102;-92
2022/07/05 05:50:07;;;;;;;10.13;1.65;;;15.70;99.90;;;;;;5006915;28;20060;-94
2022/07/05 05:52:54;;;;;;;6.82;1.40;;;15.90;99.90;;;;;;4995098;28;20046;-89
2022/07/05 05:55:41;;;;;;;9.43;2.50;;;16.10;99.90;;;;;;5000350;28;20053;-86
2022/07/05 05:58:27;;;;;;;5.75;1.40;;;16.30;99.90;;;;;;5020102;28;20046;-93
2022/07/05 06:01:13;;;;;;;6.80;1.17;;;16.40;99.90;;;;;;5022270;28;20054;-88
2022/07/05 06:04:00;;;;;;;5.35;2.00;;;16.50;99.90;;;;;;5013551;28;20046;-96
2022/07/05 06:06:46;;;;;;;6.68;1.50;;;16.70;99.90;;;;;;5015255;28;20054;-90
2022/07/05 06:09:32;;;;;;;8.65;2.03;;;16.80;99.90;;;;;;5013028;28;20057;-89
2022/07/05 06:12:19;;;;;;;8.55;1.23;;;16.90;99.90;;;;;;5013272;28;20073;-89
2022/07/05 06:15:05;;;;;;;4.95;1.08;;;17.10;99.90;;;;;;5014832;28;20123;-85
2022/07/05 06:17:51;;;;;;;8.75;1.45;;;17.10;99.90;;;;;;4999282;28;20140;-89
2022/07/05 06:20:39;;;;;;;3.65;1.10;;;17.20;99.90;;;;;;4998288;28;20466;-91
2022/07/05 06:23:25;;;;;;;9.48;1.42;;;17.30;99.90;;;;;;5017464;28;20057;-86
2022/07/05 06:26:11;;;;;;;8.00;1.00;;;17.50;99.90;;;;;;5010954;28;20138;-84
2022/07/05 06:28:57;;;;;;;7.00;1.05;;;17.60;99.90;;;;;;4996319;28;20052;-82
2022/07/05 06:31:43;;;;;;;32.42;2.28;;;17.60;99.90;;;;;;5016353;28;20089;-82
2022/07/05 06:34:29;;;;;;;6.05;1.23;;;17.60;99.90;;;;;;5023584;28;20056;-91
2022/07/05 06:37:15;;;;;;;8.77;1.20;;;17.80;99.90;;;;;;5026644;28;20056;-89
2022/07/05 06:40:01;;;;;;;7.38;1.40;;;17.90;99.90;;;;;;5006676;28;20062;-84
2022/07/05 06:42:48;;;;;;;5.90;1.30;;;18.00;99.90;;;;;;5019655;28;20126;-83
2022/07/05 06:45:35;;;;;;;9.02;1.08;;;18.20;99.90;;;;;;5018525;28;20453;-85
2022/07/05 06:48:21;;;;;;;6.75;1.35;;;18.60;99.90;;;;;;5016117;28;20121;-82
2022/07/05 06:51:07;;;;;;;8.27;1.27;;;18.80;99.90;;;;;;5014456;28;20064;-86
2022/07/05 06:53:54;;;;;;;4.97;0.80;;;19.10;99.90;;;;;;5015761;28;20057;-87
2022/07/05 06:56:40;;;;;;;6.90;1.67;;;19.00;99.90;;;;;;4996691;28;20057;-88
2022/07/05 06:59:26;;;;;;;5.32;1.25;;;18.50;99.90;;;;;;5017996;28;20057;-85
2022/07/05 07:02:12;;;;;;;11.02;1.70;;;18.10;99.90;;;;;;5004168;28;20081;-82
2022/07/05 07:04:58;;;;;;;7.85;1.23;;;17.90;99.90;;;;;;5015011;28;20494;-82
2022/07/05 07:10:49;;;;;;;7.50;1.20;;;18.00;99.90;;;;;;5020662;28;20053;-85
2022/07/05 07:13:35;;;;;;;9.43;1.67;;;18.20;99.90;;;;;;5017939;28;20789;-86
2022/07/05 07:16:21;;;;;;;6.70;1.13;;;18.20;99.90;;;;;;4996600;28;20053;-86
2022/07/05 07:19:08;;;;;;;7.53;1.10;;;18.20;99.90;;;;;;5017379;28;20079;-84
2022/07/05 07:21:55;;;;;;;6.72;1.00;;;18.10;99.90;;;;;;5015568;28;20116;-83
2022/07/05 07:24:41;;;;;;;12.82;1.23;;;18.00;99.90;;;;;;4997416;28;20050;-83
2022/07/05 07:27:27;;;;;;;4.55;1.00;;;17.90;99.90;;;;;;5015260;28;20046;-85
2022/07/05 07:30:15;;;;;;;4.80;1.10;;;17.90;99.90;;;;;;4999346;28;20046;-81
2022/07/05 07:33:01;;;;;;;4.70;0.82;;;18.00;99.90;;;;;;5005960;28;20049;-81
2022/07/05 07:35:47;;;;;;;5.78;0.90;;;18.30;99.90;;;;;;5016726;28;20076;-84
2022/07/05 07:38:34;;;;;;;6.75;1.15;;;18.40;99.90;;;;;;5014328;28;20053;-81
2022/07/05 07:41:20;;;;;;;11.02;1.95;;;18.60;99.90;;;;;;4994871;28;20085;-87
2022/07/05 07:44:06;;;;;;;10.63;1.45;;;18.60;99.90;;;;;;5029489;28;20046;-93
2022/07/05 07:46:53;;;;;;;6.70;1.40;;;18.50;99.90;;;;;;5026027;28;20046;-85
2022/07/05 07:49:41;;;;;;;5.85;1.42;;;18.20;99.90;;;;;;5023417;28;20143;-88
2022/07/05 07:52:27;;;;;;;7.38;1.63;;;18.00;99.90;;;;;;5005474;28;20134;-81
2022/07/05 07:55:15;;;;;;;6.25;1.50;;;17.90;99.90;;;;;;5025021;28;20049;-89
2022/07/05 07:58:01;;;;;;;7.38;1.40;;;17.90;99.90;;;;;;5006518;28;20058;-80
2022/07/05 08:00:48;;;;;;;8.27;1.23;;;17.80;99.90;;;;;;5015297;28;20023;-86
2022/07/05 08:03:34;;;;;;;6.78;1.00;;;17.90;99.90;;;;;;4998804;28;20049;-86
2022/07/05 08:06:20;;;;;;;7.20;1.08;;;17.90;99.90;;;;;;4984869;28;20856;-87
2022/07/05 08:09:06;;;;;;;6.53;1.33;;;17.90;99.90;;;;;;5004964;28;20042;-85
2022/07/05 08:11:52;;;;;;;6.80;1.30;;;17.80;99.90;;;;;;4984418;28;20097;-86
2022/07/05 08:14:39;;;;;;;8.07;1.10;;;17.70;99.90;;;;;;5004105;28;20093;-86
2022/07/05 08:17:25;;;;;;;9.25;1.13;;;17.70;99.90;;;;;;4998234;28;20094;-94
2022/07/05 08:23:17;;;;;;;8.05;1.38;;;17.90;99.90;;;;;;4990085;28;20049;-84
2022/07/05 08:26:04;;;;;;;9.32;1.10;;;18.10;99.90;;;;;;4981483;28;20176;-93
2022/07/05 08:28:50;;;;;;;6.20;1.20;;;18.20;99.90;;;;;;4984526;28;20503;-86
2022/07/05 08:31:40;;;;;;;6.95;1.25;;;18.40;99.90;;;;;;4969927;28;20509;-90
2022/07/05 08:34:28;;;;;;;6.20;1.05;;;18.40;99.90;;;;;;4995875;28;20046;-94
2022/07/05 08:37:14;;;;;;;9.10;1.38;;;18.30;99.90;;;;;;4999826;28;20047;-86
2022/07/05 08:40:00;;;;;;;6.80;1.38;;;18.10;99.90;;;;;;4989645;28;20095;-93
2022/07/05 08:42:47;;;;;;;6.93;1.13;;;18.20;99.90;;;;;;4992405;28;20054;-93
2022/07/05 08:45:39;;;;;;;6.57;1.20;;;18.20;99.90;;;;;;5011355;28;20030;-89
2022/07/05 08:48:28;;;;;;;5.30;1.05;;;18.30;99.90;;;;;;5006152;28;20054;-90
2022/07/05 08:51:17;;;;;;;9.40;1.33;;;18.40;99.90;;;;;;4991223;28;20050;-94
2022/07/05 08:54:03;;;;;;;7.53;1.00;;;18.50;99.90;;;;;;4989138;28;20042;-90
2022/07/05 08:56:50;;;;;;;5.70;1.08;;;18.50;99.90;;;;;;4988465;28;20054;-92
2022/07/05 08:59:36;;;;;;;4.15;1.10;;;18.30;99.90;;;;;;4970779;28;20046;-89
2022/07/05 09:02:22;;;;;;;5.72;1.00;;;18.40;99.90;;;;;;4986570;28;20089;-93
2022/07/05 09:05:14;;;;;;;4.65;0.98;;;18.40;99.90;;;;;;4992583;28;20050;-90
2022/07/05 09:08:10;;;;;;;5.88;1.73;;;18.60;99.90;;;;;;4993768;28;20054;-90
2022/07/05 09:10:57;;;;;;;6.70;1.15;;;18.60;99.90;;;;;;4985356;28;20110;-88
2022/07/05 09:13:49;;;;;;;8.80;2.08;;;18.60;99.90;;;;;;4972488;28;20097;-89
2022/07/05 09:16:35;;;;;;;8.73;1.02;;;18.70;99.90;;;;;;4975270;28;20100;-91
2022/07/05 09:19:21;;;;;;;5.68;1.25;;;18.70;99.90;;;;;;5004003;28;20069;-91
2022/07/05 09:22:08;;;;;;;7.45;1.48;;;18.70;99.90;;;;;;4988708;28;20054;-90
2022/07/05 09:24:54;;;;;;;4.30;1.00;;;18.80;99.90;;;;;;4992493;28;20080;-91
2022/07/05 09:27:55;;;;;;;5.15;1.48;;;19.10;99.90;;;;;;4992483;28;20133;-87
2022/07/05 09:30:41;;;;;;;16.92;2.63;;;19.30;99.90;;;;;;5010185;28;20046;-91
2022/07/05 09:33:50;;;;;;;4.82;0.70;;;19.50;99.90;;;;;;5008577;28;20092;-90
2022/07/05 09:36:57;;;;;;;4.10;0.68;;;20.20;99.90;;;;;;4990304;28;20042;-90
2022/07/05 09:39:44;;;;;;;7.43;1.02;;;20.20;99.90;;;;;;4986852;28;20053;-89
2022/07/05 09:42:30;;;;;;;5.03;0.90;;;20.10;99.90;;;;;;4987217;28;20042;-89
2022/07/05 09:45:23;;;;;;;5.28;0.70;;;20.30;99.90;;;;;;4987329;28;20049;-88
2022/07/05 09:48:10;;;;;;;4.38;1.00;;;20.80;99.90;;;;;;4980159;28;20054;-90
2022/07/05 09:51:13;;;;;;;5.38;0.90;;;21.40;99.90;;;;;;4978954;28;20050;-95
2022/07/05 09:54:00;;;;;;;4.18;0.63;;;21.40;99.80;;;;;;4980032;28;20054;-88
2022/07/05 09:56:48;;;;;;;7.75;1.05;;;21.10;99.90;;;;;;4998956;28;20042;-86
2022/07/05 09:59:34;;;;;;;4.85;1.23;;;20.70;99.90;;;;;;4984839;28;20065;-88
2022/07/05 10:02:49;;;;;;;7.85;1.10;;;20.40;99.90;;;;;;4981827;28;20510;-90
2022/07/05 10:05:40;;;;;;;3.08;0.70;;;20.80;99.90;;;;;;4998902;28;20046;-89
2022/07/05 10:08:29;;;;;;;5.78;0.90;;;21.00;99.40;;;;;;4996681;28;20114;-87
2022/07/05 10:11:19;;;;;;;4.38;0.73;;;21.10;99.20;;;;;;4989144;28;20069;-92
2022/07/05 10:14:11;;;;;;;4.22;0.82;;;21.20;98.70;;;;;;4990100;28;20089;-90
2022/07/05 10:17:01;;;;;;;6.38;1.00;;;21.10;98.60;;;;;;4991006;28;20101;-92
2022/07/05 10:19:47;;;;;;;3.25;0.70;;;20.90;99.00;;;;;;4989681;28;20086;-93
2022/07/05 10:22:38;;;;;;;4.22;0.90;;;20.80;99.60;;;;;;4995511;28;20050;-91
2022/07/05 10:25:28;;;;;;;4.07;0.80;;;20.80;99.10;;;;;;4992964;28;20056;-91
2022/07/05 10:28:19;;;;;;;5.47;1.10;;;20.90;98.90;;;;;;4990672;28;20153;-87
2022/07/05 10:31:15;;;;;;;5.18;0.90;;;20.80;99.00;;;;;;5012558;28;20402;-92
2022/07/05 10:34:07;;;;;;;4.95;0.85;;;20.70;99.50;;;;;;4979786;28;20109;-91
2022/07/05 10:36:53;;;;;;;4.88;1.13;;;20.90;99.60;;;;;;4996726;28;20058;-90
2022/07/05 10:39:40;;;;;;;3.42;1.08;;;21.60;99.50;;;;;;5000596;28;20054;-89
2022/07/05 10:42:31;;;;;;;9.93;1.38;;;22.20;99.00;;;;;;4993875;28;20074;-90
2022/07/05 10:45:39;;;;;;;3.90;1.00;;;22.60;97.70;;;;;;4986063;28;20053;-94
2022/07/05 10:48:26;;;;;;;3.92;1.70;;;23.10;96.80;;;;;;4991288;28;20061;-87
2022/07/05 10:51:15;;;;;;;2.63;0.70;;;22.70;96.80;;;;;;4991121;28;20162;-87
2022/07/05 10:54:02;;;;;;;5.95;1.02;;;22.30;96.80;;;;;;4979431;28;20057;-87
2022/07/05 10:57:20;;;;;;;7.63;1.10;;;22.20;97.40;;;;;;4990992;28;20054;-85
2022/07/05 11:00:08;;;;;;;6.80;1.20;;;22.40;97.20;;;;;;5010347;28;20134;-85
2022/07/05 11:03:27;;;;;;;9.77;1.60;;;22.60;97.40;;;;;;5004774;28;20357;-92
2022/07/05 11:06:20;;;;;;;5.00;0.98;;;22.50;96.70;;;;;;4990059;28;20077;-84
2022/07/05 11:09:12;;;;;;;5.70;1.10;;;22.50;96.20;;;;;;5008383;28;20049;-89
2022/07/05 11:11:58;;;;;;;4.63;0.90;;;23.00;96.00;;;;;;5003814;28;20043;-93
2022/07/05 11:14:47;;;;;;;2.85;0.57;;;22.70;95.50;;;;;;4988730;28;20054;-84
2022/07/05 11:17:34;;;;;;;5.20;1.02;;;22.30;95.80;;;;;;4986722;28;20061;-82
2022/07/05 11:20:32;;;;;;;4.13;0.63;;;22.00;96.20;;;;;;5000321;28;20058;-86
2022/07/05 11:23:27;;;;;;;5.63;0.80;;;21.30;95.90;;;;;;5002702;28;20394;-87
2022/07/05 11:26:17;;;;;;;3.35;0.80;;;21.50;96.40;;;;;;4998816;28;20141;-86
2022/07/05 11:29:03;;;;;;;2.35;0.60;;;21.50;96.90;;;;;;4996285;28;20055;-86
2022/07/05 11:32:04;;;;;;;4.38;0.70;;;21.50;96.40;;;;;;4999346;28;20072;-85
2022/07/05 11:34:54;;;;;;;3.00;0.70;;;21.40;95.90;;;;;;4978182;28;20065;-85
2022/07/05 11:38:03;;;;;;;1.55;0.52;;;21.30;95.80;;;;;;4987698;28;20119;-86
2022/07/05 11:40:49;;;;;;;3.65;0.85;;;21.10;95.70;;;;;;4996408;28;20046;-84
2022/07/05 11:43:35;;;;;;;4.97;0.93;;;20.70;95.00;;;;;;4977316;28;20165;-81
2022/07/05 11:46:23;;;;;;;3.97;0.80;;;20.50;95.40;;;;;;4976188;28;20380;-85
2022/07/05 11:49:09;;;;;;;2.05;0.50;;;20.40;96.10;;;;;;4994769;28;20082;-85
2022/07/05 11:52:00;;;;;;;2.92;0.70;;;20.30;96.00;;;;;;4979337;28;20054;-90
2022/07/05 11:54:49;;;;;;;1.73;0.52;;;20.10;95.20;;;;;;5001616;28;20054;-85
2022/07/05 11:57:35;;;;;;;4.43;0.98;;;20.00;95.50;;;;;;4985506;28;20403;-87
2022/07/05 12:00:28;;;;;;;3.92;0.90;;;20.00;96.40;;;;;;4981905;28;20530;-87
2022/07/05 12:03:16;;;;;;;5.05;0.93;;;20.20;95.90;;;;;;4985832;28;20046;-85
2022/07/05 12:06:14;;;;;;;5.85;1.00;;;20.50;96.40;;;;;;4997198;28;20062;-86
2022/07/05 12:09:04;;;;;;;4.40;1.08;;;20.70;97.00;;;;;;4968809;28;20057;-86
2022/07/05 12:15:00;;;;;;;5.30;1.13;;;20.70;96.70;;;;;;4957842;28;20061;-82
2022/07/05 12:17:48;;;;;;;3.10;0.80;;;20.70;96.20;;;;;;4972206;28;20168;-83
2022/07/05 12:20:37;;;;;;;6.82;1.27;;;20.50;97.10;;;;;;4974065;28;20058;-81
2022/07/05 12:23:27;;;;;;;4.60;1.52;;;20.30;98.40;;;;;;4958631;28;20046;-88
2022/07/05 12:26:15;;;;;;;6.07;0.93;;;20.20;98.10;;;;;;4980583;28;20051;-85
2022/07/05 12:29:01;;;;;;;4.15;1.05;;;20.00;98.60;;;;;;4959884;28;20061;-86
2022/07/05 12:32:03;;;;;;;3.10;0.70;;;19.90;99.50;;;;;;4977473;28;20046;-87
2022/07/05 12:34:49;;;;;;;5.07;0.90;;;19.80;99.30;;;;;;4988560;28;20050;-87
2022/07/05 12:37:36;;;;;;;5.32;0.88;;;19.70;99.00;;;;;;4974376;28;20075;-85
2022/07/05 12:40:23;;;;;;;9.20;1.42;;;19.70;99.00;;;;;;4989588;28;20056;-84
2022/07/05 12:43:11;;;;;;;4.03;0.80;;;19.70;99.20;;;;;;4978166;28;20042;-88
2022/07/05 12:46:05;;;;;;;4.40;0.88;;;19.70;99.00;;;;;;4974810;28;20046;-86
2022/07/05 12:48:54;;;;;;;4.32;0.82;;;19.80;99.40;;;;;;4975526;28;20073;-84
2022/07/05 12:51:42;;;;;;;6.03;1.10;;;19.90;98.90;;;;;;4973663;28;20215;-86
2022/07/05 13:00:38;;;;;;;5.95;1.13;;;21.00;97.30;;;;;;4982638;28;20049;-86
2022/07/05 13:03:24;;;;;;;6.65;1.20;;;21.30;96.50;;;;;;4981772;28;20042;-82
2022/07/05 13:06:10;;;;;;;3.90;0.85;;;21.60;96.80;;;;;;4974826;28;20093;-89
2022/07/05 13:08:57;;;;;;;6.43;1.15;;;21.80;96.40;;;;;;4998272;28;20132;-87
2022/07/05 13:11:44;;;;;;;3.13;1.00;;;21.80;96.10;;;;;;4998820;28;20061;-81
2022/07/05 13:14:30;;;;;;;3.97;0.75;;;22.40;95.50;;;;;;4980738;28;20104;-83
2022/07/05 13:17:17;;;;;;;6.32;0.73;;;23.00;94.00;;;;;;4980053;28;20085;-94
2022/07/05 13:20:04;;;;;;;4.57;0.88;;;23.60;93.70;;;;;;4975751;28;20494;-89
2022/07/05 13:22:50;;;;;;;3.22;0.82;;;23.90;92.60;;;;;;4975061;28;20054;-85
2022/07/05 13:25:36;;;;;;;2.65;0.93;;;23.70;92.20;;;;;;4975317;28;20046;-84
2022/07/05 13:28:22;;;;;;;8.00;1.13;;;23.40;92.80;;;;;;4975245;28;20065;-92
2022/07/05 13:31:11;;;;;;;5.65;0.65;;;22.90;93.00;;;;;;4994907;28;20054;-84
2022/07/05 13:33:58;;;;;;;6.90;0.80;;;22.90;92.80;;;;;;4980014;28;20517;-87
2022/07/05 13:36:45;;;;;;;3.97;1.15;;;23.10;92.80;;;;;;4980436;28;20046;-90
2022/07/05 13:39:31;;;;;;;2.35;0.70;;;23.60;92.90;;;;;;4980701;28;20065;-92
2022/07/05 13:42:17;;;;;;;3.90;0.75;;;23.90;91.80;;;;;;4996044;28;20161;-85
2022/07/05 13:45:04;;;;;;;3.55;0.52;;;24.50;90.30;;;;;;4981719;28;20156;-85
2022/07/05 13:47:50;;;;;;;6.53;0.80;;;24.70;89.50;;;;;;4975575;28;20506;-85
2022/07/05 13:50:37;;;;;;;3.97;0.73;;;24.40;88.80;;;;;;4992949;28;20046;-86
2022/07/05 13:53:23;;;;;;;2.05;0.68;;;23.90;89.00;;;;;;4995729;28;20050;-87
2022/07/05 13:56:09;;;;;;;3.30;1.00;;;23.70;90.40;;;;;;4992718;28;20050;-86
2022/07/05 13:58:55;;;;;;;3.63;0.93;;;24.20;88.80;;;;;;4976480;28;20069;-84
2022/07/05 14:01:41;;;;;;;3.75;0.70;;;24.40;87.60;;;;;;4974955;28;20058;-83
2022/07/05 14:04:29;;;;;;;7.07;0.82;;;24.60;86.70;;;;;;4991706;28;20050;-83
2022/07/05 14:07:16;;;;;;;9.30;0.93;;;24.20;85.60;;;;;;4979199;28;20065;-86
2022/07/05 14:10:05;;;;;;;30.48;3.70;;;23.40;88.60;;;;;;4994975;28;20490;-84
2022/07/05 14:12:51;;;;;;;7.90;0.90;;;23.50;88.40;;;;;;4991296;28;20056;-81
2022/07/05 14:15:37;;;;;;;4.53;0.80;;;23.60;87.30;;;;;;4975272;28;20520;-85
2022/07/05 14:18:24;;;;;;;2.80;0.55;;;23.70;86.90;;;;;;4993620;28;20085;-86
2022/07/05 14:21:14;;;;;;;4.20;0.70;;;23.40;87.80;;;;;;4963650;28;20054;-88
2022/07/05 14:24:00;;;;;;;4.30;0.93;;;23.60;89.90;;;;;;4985437;28;20054;-85
2022/07/05 14:26:47;;;;;;;2.67;0.63;;;24.10;88.50;;;;;;5004985;28;20065;-92
2022/07/05 14:29:42;;;;;;;4.10;0.70;;;23.90;88.30;;;;;;4967261;28;20504;-91
2022/07/05 14:32:28;;;;;;;2.15;0.80;;;23.40;89.30;;;;;;4978361;28;20050;-92
2022/07/05 14:35:16;;;;;;;2.00;0.68;;;23.50;89.40;;;;;;4999144;28;20054;-89
2022/07/05 14:38:02;;;;;;;4.50;0.85;;;23.10;90.20;;;;;;4982506;28;20050;-91
2022/07/05 14:40:48;;;;;;;3.40;0.95;;;22.80;90.00;;;;;;4994547;28;20054;-89
2022/07/05 14:43:34;;;;;;;8.50;0.98;;;22.50;90.40;;;;;;4990511;28;20401;-83
2022/07/05 14:46:21;;;;;;;6.93;0.90;;;22.80;90.70;;;;;;4991101;28;20113;-82
2022/07/05 14:49:07;;;;;;;3.22;1.05;;;23.80;90.30;;;;;;4994347;28;20061;-84